sensor_id;sensor_type;location;lat;lon;timestamp;P1;durP1;ratioP1;P2;durP2;ratioP2
29378;SDS011;16362;47.202;15.258;2024-03-02T00:00:10;98.82;;;46.45;;
29378;SDS011;16362;47.202;15.258;2024-03-02T00:02:40;93.32;;;44.97;;
29378;SDS011;16362;47.202;15.258;2024-03-02T00:05:07;94.90;;;43.92;;
29378;SDS011;16362;47.202;15.258;2024-03-02T00:07:37;84.55;;;41.33;;
29378;SDS011;16362;47.202;15.258;2024-03-02T00:10:08;79.45;;;38.75;;
29378;SDS011;16362;47.202;15.258;2024-03-02T00:12:37;78.05;;;38.72;;
29378;SDS011;16362;47.202;15.258;2024-03-02T00:15:23;81.63;;;40.17;;
29378;SDS011;16362;47.202;15.258;2024-03-02T00:18:11;84.15;;;41.65;;
29378;SDS011;16362;47.202;15.258;2024-03-02T00:20:39;87.22;;;40.28;;
29378;SDS011;16362;47.202;15.258;2024-03-02T00:23:08;86.00;;;41.30;;
29378;SDS011;16362;47.202;15.258;2024-03-02T00:28:10;66.13;;;34.85;;
29378;SDS011;16362;47.202;15.258;2024-03-02T00:30:45;76.50;;;36.22;;
29378;SDS011;16362;47.202;15.258;2024-03-02T00:33:21;79.32;;;36.72;;
29378;SDS011;16362;47.202;15.258;2024-03-02T00:36:06;77.07;;;37.65;;
29378;SDS011;16362;47.202;15.258;2024-03-02T00:38:42;90.95;;;40.13;;
29378;SDS011;16362;47.202;15.258;2024-03-02T00:41:19;95.93;;;42.03;;
29378;SDS011;16362;47.202;15.258;2024-03-02T00:46:19;91.05;;;39.22;;
29378;SDS011;16362;47.202;15.258;2024-03-02T00:48:57;76.15;;;37.08;;
29378;SDS011;16362;47.202;15.258;2024-03-02T00:51:32;80.72;;;38.42;;
29378;SDS011;16362;47.202;15.258;2024-03-02T00:54:01;84.15;;;39.25;;
29378;SDS011;16362;47.202;15.258;2024-03-02T00:56:31;83.95;;;39.22;;
29378;SDS011;16362;47.202;15.258;2024-03-02T00:59:05;81.75;;;40.10;;
29378;SDS011;16362;47.202;15.258;2024-03-02T01:01:33;83.82;;;39.13;;
29378;SDS011;16362;47.202;15.258;2024-03-02T01:04:01;84.03;;;38.42;;
29378;SDS011;16362;47.202;15.258;2024-03-02T01:06:35;70.75;;;35.95;;
29378;SDS011;16362;47.202;15.258;2024-03-02T01:09:03;72.93;;;36.70;;
29378;SDS011;16362;47.202;15.258;2024-03-02T01:11:31;77.22;;;37.97;;
29378;SDS011;16362;47.202;15.258;2024-03-02T01:13:59;76.22;;;36.42;;
29378;SDS011;16362;47.202;15.258;2024-03-02T01:16:29;79.85;;;37.00;;
29378;SDS011;16362;47.202;15.258;2024-03-02T01:18:57;65.20;;;32.80;;
29378;SDS011;16362;47.202;15.258;2024-03-02T01:21:25;63.67;;;33.10;;
29378;SDS011;16362;47.202;15.258;2024-03-02T01:23:59;60.17;;;32.63;;
29378;SDS011;16362;47.202;15.258;2024-03-02T01:26:39;69.47;;;32.55;;
29378;SDS011;16362;47.202;15.258;2024-03-02T01:29:09;65.80;;;33.47;;
29378;SDS011;16362;47.202;15.258;2024-03-02T01:31:45;73.57;;;34.83;;
29378;SDS011;16362;47.202;15.258;2024-03-02T01:34:29;73.30;;;36.40;;
29378;SDS011;16362;47.202;15.258;2024-03-02T01:36:56;73.00;;;35.53;;
29378;SDS011;16362;47.202;15.258;2024-03-02T01:39:22;67.85;;;34.58;;
29378;SDS011;16362;47.202;15.258;2024-03-02T01:41:58;75.13;;;37.42;;
29378;SDS011;16362;47.202;15.258;2024-03-02T01:44:25;76.63;;;36.70;;
29378;SDS011;16362;47.202;15.258;2024-03-02T01:46:52;69.85;;;34.97;;
29378;SDS011;16362;47.202;15.258;2024-03-02T01:49:19;77.53;;;34.75;;
29378;SDS011;16362;47.202;15.258;2024-03-02T01:51:45;66.00;;;33.45;;
29378;SDS011;16362;47.202;15.258;2024-03-02T01:54:12;72.75;;;36.30;;
29378;SDS011;16362;47.202;15.258;2024-03-02T01:56:39;68.20;;;33.92;;
29378;SDS011;16362;47.202;15.258;2024-03-02T01:59:06;68.43;;;34.17;;
29378;SDS011;16362;47.202;15.258;2024-03-02T02:01:33;63.13;;;32.63;;
29378;SDS011;16362;47.202;15.258;2024-03-02T02:04:00;60.88;;;31.95;;
29378;SDS011;16362;47.202;15.258;2024-03-02T02:06:27;61.78;;;33.15;;
29378;SDS011;16362;47.202;15.258;2024-03-02T02:08:54;71.55;;;34.38;;
29378;SDS011;16362;47.202;15.258;2024-03-02T02:11:21;62.28;;;32.10;;
29378;SDS011;16362;47.202;15.258;2024-03-02T02:13:48;66.50;;;33.45;;
29378;SDS011;16362;47.202;15.258;2024-03-02T02:16:15;74.45;;;36.00;;
29378;SDS011;16362;47.202;15.258;2024-03-02T02:18:43;72.93;;;35.60;;
29378;SDS011;16362;47.202;15.258;2024-03-02T02:21:10;66.45;;;32.58;;
29378;SDS011;16362;47.202;15.258;2024-03-02T02:23:37;65.53;;;32.17;;
29378;SDS011;16362;47.202;15.258;2024-03-02T02:26:10;70.68;;;33.63;;
29378;SDS011;16362;47.202;15.258;2024-03-02T02:28:37;71.05;;;34.45;;
29378;SDS011;16362;47.202;15.258;2024-03-02T02:31:04;65.95;;;35.10;;
29378;SDS011;16362;47.202;15.258;2024-03-02T02:33:32;68.10;;;33.33;;
29378;SDS011;16362;47.202;15.258;2024-03-02T02:36:00;68.00;;;34.45;;
29378;SDS011;16362;47.202;15.258;2024-03-02T02:38:31;67.32;;;34.28;;
29378;SDS011;16362;47.202;15.258;2024-03-02T02:41:01;73.20;;;34.75;;
29378;SDS011;16362;47.202;15.258;2024-03-02T02:43:29;74.25;;;36.38;;
29378;SDS011;16362;47.202;15.258;2024-03-02T02:48:47;67.07;;;33.72;;
29378;SDS011;16362;47.202;15.258;2024-03-02T02:51:23;75.95;;;36.47;;
29378;SDS011;16362;47.202;15.258;2024-03-02T02:54:05;78.57;;;36.97;;
29378;SDS011;16362;47.202;15.258;2024-03-02T02:56:31;76.15;;;38.05;;
29378;SDS011;16362;47.202;15.258;2024-03-02T02:58:59;83.25;;;37.50;;
29378;SDS011;16362;47.202;15.258;2024-03-02T03:01:27;77.50;;;37.50;;
29378;SDS011;16362;47.202;15.258;2024-03-02T03:03:55;71.00;;;34.50;;
29378;SDS011;16362;47.202;15.258;2024-03-02T03:06:24;85.18;;;40.15;;
29378;SDS011;16362;47.202;15.258;2024-03-02T03:08:52;89.45;;;39.78;;
29378;SDS011;16362;47.202;15.258;2024-03-02T03:11:29;88.53;;;41.15;;
29378;SDS011;16362;47.202;15.258;2024-03-02T03:13:57;98.88;;;43.20;;
29378;SDS011;16362;47.202;15.258;2024-03-02T03:16:25;91.95;;;40.55;;
29378;SDS011;16362;47.202;15.258;2024-03-02T03:18:53;90.15;;;40.47;;
29378;SDS011;16362;47.202;15.258;2024-03-02T03:21:28;79.95;;;38.38;;
29378;SDS011;16362;47.202;15.258;2024-03-02T03:24:02;89.72;;;37.88;;
29378;SDS011;16362;47.202;15.258;2024-03-02T03:26:30;90.85;;;40.17;;
29378;SDS011;16362;47.202;15.258;2024-03-02T03:28:57;89.65;;;40.08;;
29378;SDS011;16362;47.202;15.258;2024-03-02T03:31:24;88.95;;;40.33;;
29378;SDS011;16362;47.202;15.258;2024-03-02T03:33:51;93.47;;;40.58;;
29378;SDS011;16362;47.202;15.258;2024-03-02T03:36:18;92.53;;;41.83;;
29378;SDS011;16362;47.202;15.258;2024-03-02T03:38:44;94.72;;;41.88;;
29378;SDS011;16362;47.202;15.258;2024-03-02T03:41:11;98.78;;;43.25;;
29378;SDS011;16362;47.202;15.258;2024-03-02T03:43:38;98.22;;;41.30;;
29378;SDS011;16362;47.202;15.258;2024-03-02T03:46:05;96.38;;;41.05;;
29378;SDS011;16362;47.202;15.258;2024-03-02T03:48:31;92.90;;;40.28;;
29378;SDS011;16362;47.202;15.258;2024-03-02T03:50:58;98.00;;;40.85;;
29378;SDS011;16362;47.202;15.258;2024-03-02T03:53:25;90.05;;;39.78;;
29378;SDS011;16362;47.202;15.258;2024-03-02T03:55:53;92.82;;;39.47;;
29378;SDS011;16362;47.202;15.258;2024-03-02T03:58:33;88.40;;;38.38;;
29378;SDS011;16362;47.202;15.258;2024-03-02T04:01:03;85.97;;;37.65;;
29378;SDS011;16362;47.202;15.258;2024-03-02T04:03:31;85.55;;;36.92;;
29378;SDS011;16362;47.202;15.258;2024-03-02T04:05:59;95.57;;;39.67;;
29378;SDS011;16362;47.202;15.258;2024-03-02T04:08:27;91.35;;;39.40;;
29378;SDS011;16362;47.202;15.258;2024-03-02T04:10:56;84.85;;;36.53;;
29378;SDS011;16362;47.202;15.258;2024-03-02T04:13:23;82.03;;;35.40;;
29378;SDS011;16362;47.202;15.258;2024-03-02T04:16:00;84.50;;;36.88;;
29378;SDS011;16362;47.202;15.258;2024-03-02T04:18:27;82.43;;;36.67;;
29378;SDS011;16362;47.202;15.258;2024-03-02T04:20:55;81.95;;;36.30;;
29378;SDS011;16362;47.202;15.258;2024-03-02T04:23:23;89.78;;;39.20;;
29378;SDS011;16362;47.202;15.258;2024-03-02T04:25:51;95.35;;;40.25;;
29378;SDS011;16362;47.202;15.258;2024-03-02T04:28:20;88.78;;;39.33;;
29378;SDS011;16362;47.202;15.258;2024-03-02T04:30:54;100.93;;;41.17;;
29378;SDS011;16362;47.202;15.258;2024-03-02T04:33:22;88.90;;;38.67;;
29378;SDS011;16362;47.202;15.258;2024-03-02T04:35:49;92.43;;;40.03;;
29378;SDS011;16362;47.202;15.258;2024-03-02T04:38:18;99.10;;;39.95;;
29378;SDS011;16362;47.202;15.258;2024-03-02T04:40:51;99.40;;;40.90;;
29378;SDS011;16362;47.202;15.258;2024-03-02T04:43:31;94.40;;;39.28;;
29378;SDS011;16362;47.202;15.258;2024-03-02T04:46:00;94.70;;;37.72;;
29378;SDS011;16362;47.202;15.258;2024-03-02T04:48:33;92.15;;;37.40;;
29378;SDS011;16362;47.202;15.258;2024-03-02T04:51:01;88.10;;;37.20;;
29378;SDS011;16362;47.202;15.258;2024-03-02T04:53:30;93.85;;;38.60;;
29378;SDS011;16362;47.202;15.258;2024-03-02T04:56:00;85.80;;;37.65;;
29378;SDS011;16362;47.202;15.258;2024-03-02T04:59:03;66.50;;;26.33;;
29378;SDS011;16362;47.202;15.258;2024-03-02T05:01:30;91.45;;;38.15;;
29378;SDS011;16362;47.202;15.258;2024-03-02T05:03:57;82.10;;;36.20;;
29378;SDS011;16362;47.202;15.258;2024-03-02T05:06:23;80.43;;;34.67;;
29378;SDS011;16362;47.202;15.258;2024-03-02T05:08:50;80.95;;;34.55;;
29378;SDS011;16362;47.202;15.258;2024-03-02T05:11:17;78.43;;;35.70;;
29378;SDS011;16362;47.202;15.258;2024-03-02T05:14:16;76.13;;;35.10;;
29378;SDS011;16362;47.202;15.258;2024-03-02T05:16:43;89.07;;;37.47;;
29378;SDS011;16362;47.202;15.258;2024-03-02T05:19:11;83.47;;;36.10;;
29378;SDS011;16362;47.202;15.258;2024-03-02T05:21:38;91.95;;;38.35;;
29378;SDS011;16362;47.202;15.258;2024-03-02T05:24:05;77.70;;;34.92;;
29378;SDS011;16362;47.202;15.258;2024-03-02T05:26:32;78.85;;;34.80;;
29378;SDS011;16362;47.202;15.258;2024-03-02T05:28:58;79.28;;;34.08;;
29378;SDS011;16362;47.202;15.258;2024-03-02T05:31:25;71.68;;;32.38;;
29378;SDS011;16362;47.202;15.258;2024-03-02T05:33:52;74.70;;;33.17;;
29378;SDS011;16362;47.202;15.258;2024-03-02T05:36:23;75.72;;;32.55;;
29378;SDS011;16362;47.202;15.258;2024-03-02T05:38:50;69.65;;;31.17;;
29378;SDS011;16362;47.202;15.258;2024-03-02T05:41:33;71.20;;;31.27;;
29378;SDS011;16362;47.202;15.258;2024-03-02T05:44:13;72.00;;;31.33;;
29378;SDS011;16362;47.202;15.258;2024-03-02T05:46:42;62.45;;;29.25;;
29378;SDS011;16362;47.202;15.258;2024-03-02T05:49:18;63.80;;;29.33;;
29378;SDS011;16362;47.202;15.258;2024-03-02T05:51:57;62.58;;;28.92;;
29378;SDS011;16362;47.202;15.258;2024-03-02T05:54:30;60.72;;;29.02;;
29378;SDS011;16362;47.202;15.258;2024-03-02T05:56:58;61.47;;;27.88;;
29378;SDS011;16362;47.202;15.258;2024-03-02T05:59:43;57.30;;;27.40;;
29378;SDS011;16362;47.202;15.258;2024-03-02T06:02:14;52.97;;;26.77;;
29378;SDS011;16362;47.202;15.258;2024-03-02T06:04:41;60.53;;;27.65;;
29378;SDS011;16362;47.202;15.258;2024-03-02T06:07:11;66.60;;;30.27;;
29378;SDS011;16362;47.202;15.258;2024-03-02T06:12:28;70.00;;;31.65;;
29378;SDS011;16362;47.202;15.258;2024-03-02T06:14:59;66.80;;;28.92;;
29378;SDS011;16362;47.202;15.258;2024-03-02T06:17:27;66.25;;;29.50;;
29378;SDS011;16362;47.202;15.258;2024-03-02T06:19:53;65.38;;;31.20;;
29378;SDS011;16362;47.202;15.258;2024-03-02T06:22:21;69.47;;;32.10;;
29378;SDS011;16362;47.202;15.258;2024-03-02T06:24:49;62.95;;;28.77;;
29378;SDS011;16362;47.202;15.258;2024-03-02T06:27:18;59.72;;;28.85;;
29378;SDS011;16362;47.202;15.258;2024-03-02T06:29:47;59.80;;;28.02;;
29378;SDS011;16362;47.202;15.258;2024-03-02T06:32:23;59.42;;;28.73;;
29378;SDS011;16362;47.202;15.258;2024-03-02T06:34:52;68.32;;;30.55;;
29378;SDS011;16362;47.202;15.258;2024-03-02T06:37:20;63.20;;;29.60;;
29378;SDS011;16362;47.202;15.258;2024-03-02T06:39:48;64.80;;;29.95;;
29378;SDS011;16362;47.202;15.258;2024-03-02T06:42:15;68.88;;;30.75;;
29378;SDS011;16362;47.202;15.258;2024-03-02T06:44:54;59.88;;;30.40;;
29378;SDS011;16362;47.202;15.258;2024-03-02T06:47:20;70.00;;;30.60;;
29378;SDS011;16362;47.202;15.258;2024-03-02T06:49:47;70.50;;;30.67;;
29378;SDS011;16362;47.202;15.258;2024-03-02T06:52:14;60.30;;;29.48;;
29378;SDS011;16362;47.202;15.258;2024-03-02T06:54:41;67.68;;;30.75;;
29378;SDS011;16362;47.202;15.258;2024-03-02T06:57:08;60.25;;;28.48;;
29378;SDS011;16362;47.202;15.258;2024-03-02T06:59:34;59.08;;;29.95;;
29378;SDS011;16362;47.202;15.258;2024-03-02T07:02:01;59.15;;;29.20;;
29378;SDS011;16362;47.202;15.258;2024-03-02T07:04:28;67.85;;;30.63;;
29378;SDS011;16362;47.202;15.258;2024-03-02T07:06:55;69.00;;;30.30;;
29378;SDS011;16362;47.202;15.258;2024-03-02T07:09:22;70.35;;;31.33;;
29378;SDS011;16362;47.202;15.258;2024-03-02T07:11:49;56.78;;;28.08;;
29378;SDS011;16362;47.202;15.258;2024-03-02T07:14:17;55.22;;;27.63;;
29378;SDS011;16362;47.202;15.258;2024-03-02T07:16:44;61.15;;;27.92;;
29378;SDS011;16362;47.202;15.258;2024-03-02T07:19:11;57.88;;;27.75;;
29378;SDS011;16362;47.202;15.258;2024-03-02T07:21:38;51.33;;;26.83;;
29378;SDS011;16362;47.202;15.258;2024-03-02T07:24:05;56.53;;;26.40;;
29378;SDS011;16362;47.202;15.258;2024-03-02T07:26:41;60.90;;;27.90;;
29378;SDS011;16362;47.202;15.258;2024-03-02T07:29:10;57.28;;;27.35;;
29378;SDS011;16362;47.202;15.258;2024-03-02T07:31:38;37.80;;;22.67;;
29378;SDS011;16362;47.202;15.258;2024-03-02T07:34:06;40.05;;;21.73;;
29378;SDS011;16362;47.202;15.258;2024-03-02T07:36:40;42.30;;;22.42;;
29378;SDS011;16362;47.202;15.258;2024-03-02T07:39:07;31.52;;;18.88;;
29378;SDS011;16362;47.202;15.258;2024-03-02T07:41:36;27.33;;;17.55;;
29378;SDS011;16362;47.202;15.258;2024-03-02T07:44:03;27.00;;;16.45;;
29378;SDS011;16362;47.202;15.258;2024-03-02T07:46:30;30.85;;;17.90;;
29378;SDS011;16362;47.202;15.258;2024-03-02T07:48:57;21.15;;;14.68;;
29378;SDS011;16362;47.202;15.258;2024-03-02T07:51:23;29.25;;;16.60;;
29378;SDS011;16362;47.202;15.258;2024-03-02T07:53:50;19.13;;;13.75;;
29378;SDS011;16362;47.202;15.258;2024-03-02T07:56:17;20.50;;;13.13;;
29378;SDS011;16362;47.202;15.258;2024-03-02T07:58:48;14.93;;;11.48;;
29378;SDS011;16362;47.202;15.258;2024-03-02T08:01:15;12.82;;;10.50;;
29378;SDS011;16362;47.202;15.258;2024-03-02T08:03:44;12.48;;;10.07;;
29378;SDS011;16362;47.202;15.258;2024-03-02T08:06:17;10.80;;;9.73;;
29378;SDS011;16362;47.202;15.258;2024-03-02T08:08:45;11.60;;;9.68;;
29378;SDS011;16362;47.202;15.258;2024-03-02T08:11:11;15.05;;;9.95;;
29378;SDS011;16362;47.202;15.258;2024-03-02T08:13:42;11.07;;;9.52;;
29378;SDS011;16362;47.202;15.258;2024-03-02T08:16:09;22.60;;;10.05;;
29378;SDS011;16362;47.202;15.258;2024-03-02T08:18:38;11.77;;;9.15;;
29378;SDS011;16362;47.202;15.258;2024-03-02T08:21:05;10.95;;;9.55;;
29378;SDS011;16362;47.202;15.258;2024-03-02T08:23:38;12.73;;;10.25;;
29378;SDS011;16362;47.202;15.258;2024-03-02T08:26:10;18.92;;;10.93;;
29378;SDS011;16362;47.202;15.258;2024-03-02T08:28:39;15.45;;;11.13;;
29378;SDS011;16362;47.202;15.258;2024-03-02T08:31:09;15.52;;;11.38;;
29378;SDS011;16362;47.202;15.258;2024-03-02T08:33:37;12.77;;;10.45;;
29378;SDS011;16362;47.202;15.258;2024-03-02T08:36:04;16.02;;;11.07;;
29378;SDS011;16362;47.202;15.258;2024-03-02T08:38:32;16.13;;;11.85;;
29378;SDS011;16362;47.202;15.258;2024-03-02T08:41:00;17.23;;;11.77;;
29378;SDS011;16362;47.202;15.258;2024-03-02T08:43:27;18.67;;;11.73;;
29378;SDS011;16362;47.202;15.258;2024-03-02T08:45:54;15.18;;;12.27;;
29378;SDS011;16362;47.202;15.258;2024-03-02T08:48:21;16.70;;;10.77;;
29378;SDS011;16362;47.202;15.258;2024-03-02T08:50:48;13.80;;;11.05;;
29378;SDS011;16362;47.202;15.258;2024-03-02T08:53:15;13.25;;;11.32;;
29378;SDS011;16362;47.202;15.258;2024-03-02T08:55:48;14.68;;;10.98;;
29378;SDS011;16362;47.202;15.258;2024-03-02T08:58:16;13.82;;;11.20;;
29378;SDS011;16362;47.202;15.258;2024-03-02T09:00:44;14.05;;;11.35;;
29378;SDS011;16362;47.202;15.258;2024-03-02T09:03:11;11.60;;;10.38;;
29378;SDS011;16362;47.202;15.258;2024-03-02T09:05:38;14.52;;;11.20;;
29378;SDS011;16362;47.202;15.258;2024-03-02T09:08:05;13.95;;;10.73;;
29378;SDS011;16362;47.202;15.258;2024-03-02T09:10:32;15.80;;;9.88;;
29378;SDS011;16362;47.202;15.258;2024-03-02T09:13:01;11.38;;;10.23;;
29378;SDS011;16362;47.202;15.258;2024-03-02T09:15:29;12.93;;;9.90;;
29378;SDS011;16362;47.202;15.258;2024-03-02T09:18:02;13.88;;;10.77;;
29378;SDS011;16362;47.202;15.258;2024-03-02T09:20:29;17.52;;;11.23;;
29378;SDS011;16362;47.202;15.258;2024-03-02T09:22:55;13.63;;;10.38;;
29378;SDS011;16362;47.202;15.258;2024-03-02T09:25:23;17.08;;;11.15;;
29378;SDS011;16362;47.202;15.258;2024-03-02T09:27:49;15.38;;;11.18;;
29378;SDS011;16362;47.202;15.258;2024-03-02T09:30:18;18.20;;;12.65;;
29378;SDS011;16362;47.202;15.258;2024-03-02T09:32:44;17.10;;;12.15;;
29378;SDS011;16362;47.202;15.258;2024-03-02T09:35:15;11.88;;;10.52;;
29378;SDS011;16362;47.202;15.258;2024-03-02T09:37:45;13.15;;;10.45;;
29378;SDS011;16362;47.202;15.258;2024-03-02T09:40:13;11.05;;;9.60;;
29378;SDS011;16362;47.202;15.258;2024-03-02T09:42:40;13.00;;;10.63;;
29378;SDS011;16362;47.202;15.258;2024-03-02T09:45:08;16.52;;;10.63;;
29378;SDS011;16362;47.202;15.258;2024-03-02T09:47:35;13.00;;;10.18;;
29378;SDS011;16362;47.202;15.258;2024-03-02T09:50:06;12.02;;;10.57;;
29378;SDS011;16362;47.202;15.258;2024-03-02T09:52:35;15.85;;;11.07;;
29378;SDS011;16362;47.202;15.258;2024-03-02T09:55:04;15.18;;;9.82;;
29378;SDS011;16362;47.202;15.258;2024-03-02T09:57:33;14.55;;;10.55;;
29378;SDS011;16362;47.202;15.258;2024-03-02T10:00:00;18.27;;;11.00;;
29378;SDS011;16362;47.202;15.258;2024-03-02T10:02:26;17.38;;;11.93;;
29378;SDS011;16362;47.202;15.258;2024-03-02T10:04:54;17.55;;;11.18;;
29378;SDS011;16362;47.202;15.258;2024-03-02T10:07:20;14.07;;;11.02;;
29378;SDS011;16362;47.202;15.258;2024-03-02T10:09:48;13.75;;;9.88;;
29378;SDS011;16362;47.202;15.258;2024-03-02T10:12:16;16.35;;;10.52;;
29378;SDS011;16362;47.202;15.258;2024-03-02T10:14:44;12.13;;;8.48;;
29378;SDS011;16362;47.202;15.258;2024-03-02T10:17:12;11.80;;;9.15;;
29378;SDS011;16362;47.202;15.258;2024-03-02T10:19:40;9.95;;;8.82;;
29378;SDS011;16362;47.202;15.258;2024-03-02T10:22:07;14.00;;;9.05;;
29378;SDS011;16362;47.202;15.258;2024-03-02T10:24:43;13.27;;;9.35;;
29378;SDS011;16362;47.202;15.258;2024-03-02T10:27:23;10.32;;;8.95;;
29378;SDS011;16362;47.202;15.258;2024-03-02T10:29:54;9.82;;;8.90;;
29378;SDS011;16362;47.202;15.258;2024-03-02T10:32:22;8.25;;;7.55;;
29378;SDS011;16362;47.202;15.258;2024-03-02T10:34:49;9.50;;;8.60;;
29378;SDS011;16362;47.202;15.258;2024-03-02T10:37:22;13.13;;;9.65;;
29378;SDS011;16362;47.202;15.258;2024-03-02T10:39:51;12.68;;;9.90;;
29378;SDS011;16362;47.202;15.258;2024-03-02T10:42:38;24.35;;;15.50;;
29378;SDS011;16362;47.202;15.258;2024-03-02T10:45:07;22.90;;;14.55;;
29378;SDS011;16362;47.202;15.258;2024-03-02T10:47:38;25.77;;;15.95;;
29378;SDS011;16362;47.202;15.258;2024-03-02T10:50:05;28.42;;;17.77;;
29378;SDS011;16362;47.202;15.258;2024-03-02T10:52:37;23.95;;;15.98;;
29378;SDS011;16362;47.202;15.258;2024-03-02T10:55:17;24.42;;;15.95;;
29378;SDS011;16362;47.202;15.258;2024-03-02T11:00:20;23.05;;;15.07;;
29378;SDS011;16362;47.202;15.258;2024-03-02T11:02:57;30.42;;;17.33;;
29378;SDS011;16362;47.202;15.258;2024-03-02T11:05:30;24.10;;;15.07;;
29378;SDS011;16362;47.202;15.258;2024-03-02T11:08:00;34.08;;;17.10;;
29378;SDS011;16362;47.202;15.258;2024-03-02T11:13:30;24.02;;;15.15;;
29378;SDS011;16362;47.202;15.258;2024-03-02T11:16:04;24.90;;;13.45;;
29378;SDS011;16362;47.202;15.258;2024-03-02T11:18:40;17.27;;;11.85;;
29378;SDS011;16362;47.202;15.258;2024-03-02T11:21:12;20.58;;;13.18;;
29378;SDS011;16362;47.202;15.258;2024-03-02T11:23:43;17.05;;;10.85;;
29378;SDS011;16362;47.202;15.258;2024-03-02T11:26:19;30.17;;;12.85;;
29378;SDS011;16362;47.202;15.258;2024-03-02T11:28:48;31.05;;;15.15;;
29378;SDS011;16362;47.202;15.258;2024-03-02T11:31:16;33.22;;;17.23;;
29378;SDS011;16362;47.202;15.258;2024-03-02T11:33:43;27.30;;;14.93;;
29378;SDS011;16362;47.202;15.258;2024-03-02T11:36:15;26.83;;;15.75;;
29378;SDS011;16362;47.202;15.258;2024-03-02T11:38:43;19.42;;;13.35;;
29378;SDS011;16362;47.202;15.258;2024-03-02T11:41:13;24.10;;;13.52;;
29378;SDS011;16362;47.202;15.258;2024-03-02T11:43:44;18.58;;;12.27;;
29378;SDS011;16362;47.202;15.258;2024-03-02T11:46:26;19.17;;;12.70;;
29378;SDS011;16362;47.202;15.258;2024-03-02T11:48:54;17.55;;;11.07;;
29378;SDS011;16362;47.202;15.258;2024-03-02T11:51:24;20.15;;;11.27;;
29378;SDS011;16362;47.202;15.258;2024-03-02T11:53:52;22.50;;;11.75;;
29378;SDS011;16362;47.202;15.258;2024-03-02T11:56:22;15.52;;;10.85;;
29378;SDS011;16362;47.202;15.258;2024-03-02T11:58:53;19.30;;;11.13;;
29378;SDS011;16362;47.202;15.258;2024-03-02T12:01:25;17.48;;;10.90;;
29378;SDS011;16362;47.202;15.258;2024-03-02T12:03:54;11.20;;;9.52;;
29378;SDS011;16362;47.202;15.258;2024-03-02T12:06:25;12.27;;;8.75;;
29378;SDS011;16362;47.202;15.258;2024-03-02T12:08:52;12.82;;;8.73;;
29378;SDS011;16362;47.202;15.258;2024-03-02T12:11:25;19.70;;;10.77;;
29378;SDS011;16362;47.202;15.258;2024-03-02T12:13:54;10.52;;;9.48;;
29378;SDS011;16362;47.202;15.258;2024-03-02T12:16:24;10.02;;;8.90;;
29378;SDS011;16362;47.202;15.258;2024-03-02T12:18:54;10.95;;;9.20;;
29378;SDS011;16362;47.202;15.258;2024-03-02T12:21:22;11.15;;;8.30;;
29378;SDS011;16362;47.202;15.258;2024-03-02T12:23:49;12.70;;;9.27;;
29378;SDS011;16362;47.202;15.258;2024-03-02T12:26:19;14.18;;;8.70;;
29378;SDS011;16362;47.202;15.258;2024-03-02T12:28:49;14.48;;;10.18;;
29378;SDS011;16362;47.202;15.258;2024-03-02T12:31:16;11.23;;;9.75;;
29378;SDS011;16362;47.202;15.258;2024-03-02T12:33:42;15.77;;;10.70;;
29378;SDS011;16362;47.202;15.258;2024-03-02T12:36:13;18.17;;;10.73;;
29378;SDS011;16362;47.202;15.258;2024-03-02T12:38:45;16.70;;;10.77;;
29378;SDS011;16362;47.202;15.258;2024-03-02T12:41:18;13.98;;;9.32;;
29378;SDS011;16362;47.202;15.258;2024-03-02T12:43:45;14.68;;;9.63;;
29378;SDS011;16362;47.202;15.258;2024-03-02T12:46:12;13.73;;;9.15;;
29378;SDS011;16362;47.202;15.258;2024-03-02T12:48:41;18.05;;;10.18;;
29378;SDS011;16362;47.202;15.258;2024-03-02T12:51:08;18.35;;;9.68;;
29378;SDS011;16362;47.202;15.258;2024-03-02T12:53:35;12.65;;;9.65;;
29378;SDS011;16362;47.202;15.258;2024-03-02T12:56:03;13.38;;;9.80;;
29378;SDS011;16362;47.202;15.258;2024-03-02T12:58:39;16.75;;;9.98;;
29378;SDS011;16362;47.202;15.258;2024-03-02T13:01:08;15.52;;;10.82;;
29378;SDS011;16362;47.202;15.258;2024-03-02T13:03:38;18.10;;;10.50;;
29378;SDS011;16362;47.202;15.258;2024-03-02T13:06:14;12.18;;;9.43;;
29378;SDS011;16362;47.202;15.258;2024-03-02T13:08:41;10.50;;;9.40;;
29378;SDS011;16362;47.202;15.258;2024-03-02T13:11:13;17.05;;;9.90;;
29378;SDS011;16362;47.202;15.258;2024-03-02T13:13:41;23.30;;;10.30;;
29378;SDS011;16362;47.202;15.258;2024-03-02T13:16:13;10.20;;;8.82;;
29378;SDS011;16362;47.202;15.258;2024-03-02T13:18:42;7.50;;;6.33;;
29378;SDS011;16362;47.202;15.258;2024-03-02T13:21:12;11.00;;;9.23;;
29378;SDS011;16362;47.202;15.258;2024-03-02T13:23:38;14.43;;;9.07;;
29378;SDS011;16362;47.202;15.258;2024-03-02T13:26:05;9.45;;;8.32;;
29378;SDS011;16362;47.202;15.258;2024-03-02T13:28:34;13.05;;;9.38;;
29378;SDS011;16362;47.202;15.258;2024-03-02T13:31:00;11.38;;;8.73;;
29378;SDS011;16362;47.202;15.258;2024-03-02T13:33:28;17.13;;;8.73;;
29378;SDS011;16362;47.202;15.258;2024-03-02T13:35:57;13.07;;;8.40;;
29378;SDS011;16362;47.202;15.258;2024-03-02T13:38:24;16.25;;;8.55;;
29378;SDS011;16362;47.202;15.258;2024-03-02T13:40:52;11.57;;;8.27;;
29378;SDS011;16362;47.202;15.258;2024-03-02T13:43:19;10.20;;;7.38;;
29378;SDS011;16362;47.202;15.258;2024-03-02T13:45:46;9.93;;;7.93;;
29378;SDS011;16362;47.202;15.258;2024-03-02T13:48:13;12.52;;;7.90;;
29378;SDS011;16362;47.202;15.258;2024-03-02T13:50:41;11.23;;;8.07;;
29378;SDS011;16362;47.202;15.258;2024-03-02T13:53:08;12.57;;;7.97;;
29378;SDS011;16362;47.202;15.258;2024-03-02T13:55:37;9.38;;;7.75;;
29378;SDS011;16362;47.202;15.258;2024-03-02T13:58:06;13.48;;;7.60;;
29378;SDS011;16362;47.202;15.258;2024-03-02T14:00:34;8.82;;;6.93;;
29378;SDS011;16362;47.202;15.258;2024-03-02T14:03:01;12.30;;;7.15;;
29378;SDS011;16362;47.202;15.258;2024-03-02T14:05:35;14.15;;;7.80;;
29378;SDS011;16362;47.202;15.258;2024-03-02T14:08:04;11.10;;;7.32;;
29378;SDS011;16362;47.202;15.258;2024-03-02T14:10:33;9.05;;;6.47;;
29378;SDS011;16362;47.202;15.258;2024-03-02T14:13:02;14.52;;;7.50;;
29378;SDS011;16362;47.202;15.258;2024-03-02T14:15:31;13.20;;;7.60;;
29378;SDS011;16362;47.202;15.258;2024-03-02T14:17:58;12.38;;;8.05;;
29378;SDS011;16362;47.202;15.258;2024-03-02T14:20:27;8.90;;;8.02;;
29378;SDS011;16362;47.202;15.258;2024-03-02T14:22:54;13.70;;;8.13;;
29378;SDS011;16362;47.202;15.258;2024-03-02T14:25:24;12.23;;;8.93;;
29378;SDS011;16362;47.202;15.258;2024-03-02T14:27:52;9.18;;;8.15;;
29378;SDS011;16362;47.202;15.258;2024-03-02T14:30:39;12.48;;;8.23;;
29378;SDS011;16362;47.202;15.258;2024-03-02T14:33:08;12.32;;;9.05;;
29378;SDS011;16362;47.202;15.258;2024-03-02T14:35:37;12.95;;;8.73;;
29378;SDS011;16362;47.202;15.258;2024-03-02T14:38:04;21.92;;;10.65;;
29378;SDS011;16362;47.202;15.258;2024-03-02T14:40:31;15.00;;;8.82;;